sensor_id;sensor_type;location;lat;lon;timestamp;temperature;humidity
354;DHT22;165;53.592;10.044;2022-08-19T00:00:25;20.60;99.90
354;DHT22;165;53.592;10.044;2022-08-19T00:02:51;20.60;99.90
354;DHT22;165;53.592;10.044;2022-08-19T00:05:18;20.60;99.90
354;DHT22;165;53.592;10.044;2022-08-19T00:07:44;20.60;99.90
354;DHT22;165;53.592;10.044;2022-08-19T00:10:12;20.60;99.90
354;DHT22;165;53.592;10.044;2022-08-19T00:12:38;20.60;99.90
354;DHT22;165;53.592;10.044;2022-08-19T00:15:05;20.60;99.90
354;DHT22;165;53.592;10.044;2022-08-19T00:17:31;20.60;99.90
354;DHT22;165;53.592;10.044;2022-08-19T00:19:57;20.60;99.90
354;DHT22;165;53.592;10.044;2022-08-19T00:22:22;20.50;99.90
354;DHT22;165;53.592;10.044;2022-08-19T00:24:48;20.50;99.90
354;DHT22;165;53.592;10.044;2022-08-19T00:27:13;20.50;99.90
354;DHT22;165;53.592;10.044;2022-08-19T00:29:39;20.50;99.90
354;DHT22;165;53.592;10.044;2022-08-19T00:32:05;20.50;99.90
354;DHT22;165;53.592;10.044;2022-08-19T00:34:30;20.50;99.90
354;DHT22;165;53.592;10.044;2022-08-19T00:36:56;20.40;99.90
354;DHT22;165;53.592;10.044;2022-08-19T00:39:23;20.50;99.90
354;DHT22;165;53.592;10.044;2022-08-19T00:41:50;20.50;99.90
354;DHT22;165;53.592;10.044;2022-08-19T00:44:22;20.50;99.90
354;DHT22;165;53.592;10.044;2022-08-19T00:46:49;20.50;99.90
354;DHT22;165;53.592;10.044;2022-08-19T00:49:20;20.50;99.90
354;DHT22;165;53.592;10.044;2022-08-19T00:51:51;20.60;99.90
354;DHT22;165;53.592;10.044;2022-08-19T00:54:17;20.50;99.90
354;DHT22;165;53.592;10.044;2022-08-19T00:56:43;20.40;99.90
354;DHT22;165;53.592;10.044;2022-08-19T00:59:10;20.40;99.90
354;DHT22;165;53.592;10.044;2022-08-19T01:01:41;20.50;99.90
354;DHT22;165;53.592;10.044;2022-08-19T01:04:07;20.50;99.90
354;DHT22;165;53.592;10.044;2022-08-19T01:06:35;20.50;99.90
354;DHT22;165;53.592;10.044;2022-08-19T01:09:03;20.50;99.90
354;DHT22;165;53.592;10.044;2022-08-19T01:11:31;20.50;99.90
354;DHT22;165;53.592;10.044;2022-08-19T01:13:58;20.50;99.90
354;DHT22;165;53.592;10.044;2022-08-19T01:16:25;20.40;99.90
354;DHT22;165;53.592;10.044;2022-08-19T01:18:52;20.50;99.90
354;DHT22;165;53.592;10.044;2022-08-19T01:21:42;20.40;99.90
354;DHT22;165;53.592;10.044;2022-08-19T01:24:08;20.40;99.90
354;DHT22;165;53.592;10.044;2022-08-19T01:26:42;20.40;99.90
354;DHT22;165;53.592;10.044;2022-08-19T01:29:09;20.40;99.90
354;DHT22;165;53.592;10.044;2022-08-19T01:31:36;20.40;99.90
354;DHT22;165;53.592;10.044;2022-08-19T01:34:03;20.40;99.90
354;DHT22;165;53.592;10.044;2022-08-19T01:36:35;20.40;99.90
354;DHT22;165;53.592;10.044;2022-08-19T01:39:05;20.40;99.90
354;DHT22;165;53.592;10.044;2022-08-19T01:41:32;20.40;99.90
354;DHT22;165;53.592;10.044;2022-08-19T01:43:57;20.40;99.90
354;DHT22;165;53.592;10.044;2022-08-19T01:46:23;20.50;99.90
354;DHT22;165;53.592;10.044;2022-08-19T01:48:49;20.50;99.90
354;DHT22;165;53.592;10.044;2022-08-19T01:51:15;20.40;99.90
354;DHT22;165;53.592;10.044;2022-08-19T01:53:41;20.40;99.90
354;DHT22;165;53.592;10.044;2022-08-19T01:56:07;20.40;99.90
354;DHT22;165;53.592;10.044;2022-08-19T01:58:38;20.40;99.90
354;DHT22;165;53.592;10.044;2022-08-19T02:01:07;20.40;99.90
354;DHT22;165;53.592;10.044;2022-08-19T02:03:32;20.40;99.90
354;DHT22;165;53.592;10.044;2022-08-19T02:06:01;20.40;99.90
354;DHT22;165;53.592;10.044;2022-08-19T02:08:28;20.40;99.90
354;DHT22;165;53.592;10.044;2022-08-19T02:10:54;20.40;99.90
354;DHT22;165;53.592;10.044;2022-08-19T02:13:19;20.30;99.90
354;DHT22;165;53.592;10.044;2022-08-19T02:15:45;20.30;99.90
354;DHT22;165;53.592;10.044;2022-08-19T02:18:11;20.20;99.90
354;DHT22;165;53.592;10.044;2022-08-19T02:20:37;20.20;99.90
354;DHT22;165;53.592;10.044;2022-08-19T02:23:04;20.20;99.90
354;DHT22;165;53.592;10.044;2022-08-19T02:25:30;20.10;99.90
354;DHT22;165;53.592;10.044;2022-08-19T02:27:55;20.10;99.90
354;DHT22;165;53.592;10.044;2022-08-19T02:30:21;20.20;99.90
354;DHT22;165;53.592;10.044;2022-08-19T02:32:46;20.20;99.90
354;DHT22;165;53.592;10.044;2022-08-19T02:35:13;20.20;99.90
354;DHT22;165;53.592;10.044;2022-08-19T02:37:40;20.10;99.90
354;DHT22;165;53.592;10.044;2022-08-19T02:40:25;20.10;99.90
354;DHT22;165;53.592;10.044;2022-08-19T02:42:50;20.10;99.90
354;DHT22;165;53.592;10.044;2022-08-19T02:45:16;20.10;99.90
354;DHT22;165;53.592;10.044;2022-08-19T02:47:42;20.10;99.90
354;DHT22;165;53.592;10.044;2022-08-19T02:50:08;20.10;99.90
354;DHT22;165;53.592;10.044;2022-08-19T02:52:33;20.10;99.90
354;DHT22;165;53.592;10.044;2022-08-19T02:54:59;20.10;99.90
354;DHT22;165;53.592;10.044;2022-08-19T02:57:25;20.10;99.90
354;DHT22;165;53.592;10.044;2022-08-19T02:59:51;20.10;99.90
354;DHT22;165;53.592;10.044;2022-08-19T03:02:17;20.10;99.90
354;DHT22;165;53.592;10.044;2022-08-19T03:04:42;20.10;99.90
354;DHT22;165;53.592;10.044;2022-08-19T03:07:09;20.00;99.90
354;DHT22;165;53.592;10.044;2022-08-19T03:09:37;20.00;99.90
354;DHT22;165;53.592;10.044;2022-08-19T03:12:04;20.00;99.90
354;DHT22;165;53.592;10.044;2022-08-19T03:14:31;20.00;99.90
354;DHT22;165;53.592;10.044;2022-08-19T03:16:57;20.00;99.90
354;DHT22;165;53.592;10.044;2022-08-19T03:19:23;20.00;99.90
354;DHT22;165;53.592;10.044;2022-08-19T03:21:49;20.10;99.90
354;DHT22;165;53.592;10.044;2022-08-19T03:24:16;19.90;99.90
354;DHT22;165;53.592;10.044;2022-08-19T03:26:45;19.90;99.90
354;DHT22;165;53.592;10.044;2022-08-19T03:29:11;19.80;99.90
354;DHT22;165;53.592;10.044;2022-08-19T03:31:38;19.80;99.90
354;DHT22;165;53.592;10.044;2022-08-19T03:34:04;19.80;99.90
354;DHT22;165;53.592;10.044;2022-08-19T03:36:30;19.80;99.90
354;DHT22;165;53.592;10.044;2022-08-19T03:39:00;19.80;99.90
354;DHT22;165;53.592;10.044;2022-08-19T03:41:37;19.80;99.90
354;DHT22;165;53.592;10.044;2022-08-19T03:44:03;19.80;99.90
354;DHT22;165;53.592;10.044;2022-08-19T03:46:31;19.90;99.90
354;DHT22;165;53.592;10.044;2022-08-19T03:48:59;19.80;99.90
354;DHT22;165;53.592;10.044;2022-08-19T03:51:28;19.80;99.90
354;DHT22;165;53.592;10.044;2022-08-19T03:53:56;19.80;99.90
354;DHT22;165;53.592;10.044;2022-08-19T03:56:22;19.80;99.90
354;DHT22;165;53.592;10.044;2022-08-19T03:58:48;19.90;99.90
354;DHT22;165;53.592;10.044;2022-08-19T04:01:23;19.90;99.90
354;DHT22;165;53.592;10.044;2022-08-19T04:03:50;19.90;99.90
354;DHT22;165;53.592;10.044;2022-08-19T04:06:25;19.90;99.90
354;DHT22;165;53.592;10.044;2022-08-19T04:08:52;19.90;99.90
354;DHT22;165;53.592;10.044;2022-08-19T04:11:21;20.00;99.90
354;DHT22;165;53.592;10.044;2022-08-19T04:13:48;20.00;99.90
354;DHT22;165;53.592;10.044;2022-08-19T04:16:14;20.00;99.90
354;DHT22;165;53.592;10.044;2022-08-19T04:18:40;20.10;99.90
354;DHT22;165;53.592;10.044;2022-08-19T04:21:07;20.10;99.90
354;DHT22;165;53.592;10.044;2022-08-19T04:23:34;20.10;99.90
354;DHT22;165;53.592;10.044;2022-08-19T04:26:03;20.10;99.90
354;DHT22;165;53.592;10.044;2022-08-19T04:28:29;20.10;99.90
354;DHT22;165;53.592;10.044;2022-08-19T04:30:55;20.10;99.90
354;DHT22;165;53.592;10.044;2022-08-19T04:33:25;20.00;99.90
354;DHT22;165;53.592;10.044;2022-08-19T04:35:52;20.00;99.90
354;DHT22;165;53.592;10.044;2022-08-19T04:38:19;20.00;99.90
354;DHT22;165;53.592;10.044;2022-08-19T04:40:47;20.00;99.90
354;DHT22;165;53.592;10.044;2022-08-19T04:43:33;20.00;99.90
354;DHT22;165;53.592;10.044;2022-08-19T04:46:05;20.00;99.90
354;DHT22;165;53.592;10.044;2022-08-19T04:48:31;20.10;99.90
354;DHT22;165;53.592;10.044;2022-08-19T04:50:57;20.10;99.90
354;DHT22;165;53.592;10.044;2022-08-19T04:53:25;20.10;99.90
354;DHT22;165;53.592;10.044;2022-08-19T04:55:52;20.00;99.90
354;DHT22;165;53.592;10.044;2022-08-19T04:58:17;20.00;99.90
354;DHT22;165;53.592;10.044;2022-08-19T05:00:43;20.00;99.90
354;DHT22;165;53.592;10.044;2022-08-19T05:03:09;19.90;99.90
354;DHT22;165;53.592;10.044;2022-08-19T05:05:39;19.90;99.90
354;DHT22;165;53.592;10.044;2022-08-19T05:08:05;20.00;99.90
354;DHT22;165;53.592;10.044;2022-08-19T05:10:31;20.00;99.90
354;DHT22;165;53.592;10.044;2022-08-19T05:12:56;20.00;99.90
354;DHT22;165;53.592;10.044;2022-08-19T05:15:22;20.10;99.90
354;DHT22;165;53.592;10.044;2022-08-19T05:17:48;20.10;99.90
354;DHT22;165;53.592;10.044;2022-08-19T05:20:46;20.10;99.90
354;DHT22;165;53.592;10.044;2022-08-19T05:23:30;20.20;99.90
354;DHT22;165;53.592;10.044;2022-08-19T05:25:56;20.20;99.90
354;DHT22;165;53.592;10.044;2022-08-19T05:28:21;20.20;99.90
354;DHT22;165;53.592;10.044;2022-08-19T05:30:47;20.20;99.90
354;DHT22;165;53.592;10.044;2022-08-19T05:33:13;20.20;99.90
354;DHT22;165;53.592;10.044;2022-08-19T05:35:39;20.20;99.90
354;DHT22;165;53.592;10.044;2022-08-19T05:38:06;20.20;99.90
354;DHT22;165;53.592;10.044;2022-08-19T05:40:37;20.10;99.90
354;DHT22;165;53.592;10.044;2022-08-19T05:43:05;20.10;99.90
354;DHT22;165;53.592;10.044;2022-08-19T05:45:30;20.10;99.90
354;DHT22;165;53.592;10.044;2022-08-19T05:47:56;20.10;99.90
354;DHT22;165;53.592;10.044;2022-08-19T05:50:21;20.10;99.90
354;DHT22;165;53.592;10.044;2022-08-19T05:52:47;20.20;99.90
354;DHT22;165;53.592;10.044;2022-08-19T05:55:13;20.20;99.90
354;DHT22;165;53.592;10.044;2022-08-19T05:57:39;20.20;99.90
354;DHT22;165;53.592;10.044;2022-08-19T06:00:06;20.20;99.90
354;DHT22;165;53.592;10.044;2022-08-19T06:02:36;20.20;99.90
354;DHT22;165;53.592;10.044;2022-08-19T06:05:04;20.20;99.90
354;DHT22;165;53.592;10.044;2022-08-19T06:07:32;20.20;99.90
354;DHT22;165;53.592;10.044;2022-08-19T06:09:58;20.20;99.90
354;DHT22;165;53.592;10.044;2022-08-19T06:12:23;20.20;99.90
354;DHT22;165;53.592;10.044;2022-08-19T06:14:54;20.20;99.90
354;DHT22;165;53.592;10.044;2022-08-19T06:17:20;20.20;99.90
354;DHT22;165;53.592;10.044;2022-08-19T06:19:47;20.20;99.90
354;DHT22;165;53.592;10.044;2022-08-19T06:22:15;20.20;99.90
354;DHT22;165;53.592;10.044;2022-08-19T06:24:41;20.30;99.90
354;DHT22;165;53.592;10.044;2022-08-19T06:27:07;20.30;99.90
354;DHT22;165;53.592;10.044;2022-08-19T06:29:32;20.50;99.90
354;DHT22;165;53.592;10.044;2022-08-19T06:32:00;20.50;99.90
354;DHT22;165;53.592;10.044;2022-08-19T06:34:27;20.60;99.90
354;DHT22;165;53.592;10.044;2022-08-19T06:36:54;20.70;99.90
354;DHT22;165;53.592;10.044;2022-08-19T06:39:23;20.80;99.90
354;DHT22;165;53.592;10.044;2022-08-19T06:41:51;20.80;99.90
354;DHT22;165;53.592;10.044;2022-08-19T06:44:23;20.90;99.90
354;DHT22;165;53.592;10.044;2022-08-19T06:46:48;20.90;99.90
354;DHT22;165;53.592;10.044;2022-08-19T06:49:15;20.90;99.90
354;DHT22;165;53.592;10.044;2022-08-19T06:51:43;20.90;99.90
354;DHT22;165;53.592;10.044;2022-08-19T06:54:10;20.90;99.90
354;DHT22;165;53.592;10.044;2022-08-19T06:56:36;20.90;99.90
354;DHT22;165;53.592;10.044;2022-08-19T06:59:05;20.80;99.90
354;DHT22;165;53.592;10.044;2022-08-19T07:01:35;20.80;99.90
354;DHT22;165;53.592;10.044;2022-08-19T07:04:03;20.80;99.90
354;DHT22;165;53.592;10.044;2022-08-19T07:06:29;20.80;99.90
354;DHT22;165;53.592;10.044;2022-08-19T07:08:57;20.80;99.90
354;DHT22;165;53.592;10.044;2022-08-19T07:11:23;20.80;99.90
354;DHT22;165;53.592;10.044;2022-08-19T07:13:49;20.80;99.90
354;DHT22;165;53.592;10.044;2022-08-19T07:16:17;20.90;99.90
354;DHT22;165;53.592;10.044;2022-08-19T07:18:45;21.00;99.90
354;DHT22;165;53.592;10.044;2022-08-19T07:21:20;21.00;99.90
354;DHT22;165;53.592;10.044;2022-08-19T07:23:47;21.00;99.90
354;DHT22;165;53.592;10.044;2022-08-19T07:26:22;21.00;99.90
354;DHT22;165;53.592;10.044;2022-08-19T07:28:48;21.10;99.90
354;DHT22;165;53.592;10.044;2022-08-19T07:31:18;21.10;99.90
354;DHT22;165;53.592;10.044;2022-08-19T07:33:46;21.10;99.90
354;DHT22;165;53.592;10.044;2022-08-19T07:36:16;21.40;99.90
354;DHT22;165;53.592;10.044;2022-08-19T07:38:44;21.70;99.90
354;DHT22;165;53.592;10.044;2022-08-19T07:41:12;21.90;99.90
354;DHT22;165;53.592;10.044;2022-08-19T07:43:39;22.00;99.90
354;DHT22;165;53.592;10.044;2022-08-19T07:46:05;22.10;99.90
354;DHT22;165;53.592;10.044;2022-08-19T07:48:31;22.00;99.90
354;DHT22;165;53.592;10.044;2022-08-19T07:51:01;22.00;99.90
354;DHT22;165;53.592;10.044;2022-08-19T07:53:28;21.90;99.90
354;DHT22;165;53.592;10.044;2022-08-19T07:55:54;21.90;99.90
354;DHT22;165;53.592;10.044;2022-08-19T07:58:21;21.80;99.90
354;DHT22;165;53.592;10.044;2022-08-19T08:00:49;21.90;99.90
354;DHT22;165;53.592;10.044;2022-08-19T08:03:17;21.90;99.90
354;DHT22;165;53.592;10.044;2022-08-19T08:05:44;21.80;99.90
354;DHT22;165;53.592;10.044;2022-08-19T08:08:29;21.70;99.90
354;DHT22;165;53.592;10.044;2022-08-19T08:11:14;21.60;99.90
354;DHT22;165;53.592;10.044;2022-08-19T08:13:40;21.60;99.90
354;DHT22;165;53.592;10.044;2022-08-19T08:16:08;21.50;99.90
354;DHT22;165;53.592;10.044;2022-08-19T08:18:35;21.50;99.90
354;DHT22;165;53.592;10.044;2022-08-19T08:21:07;21.40;99.90
354;DHT22;165;53.592;10.044;2022-08-19T08:23:32;21.40;99.90
354;DHT22;165;53.592;10.044;2022-08-19T08:26:01;21.40;99.90
354;DHT22;165;53.592;10.044;2022-08-19T08:28:28;21.30;99.90
354;DHT22;165;53.592;10.044;2022-08-19T08:30:58;21.30;99.90
354;DHT22;165;53.592;10.044;2022-08-19T08:33:27;21.30;99.90
354;DHT22;165;53.592;10.044;2022-08-19T08:35:52;21.40;99.90
354;DHT22;165;53.592;10.044;2022-08-19T08:38:18;21.50;99.90
354;DHT22;165;53.592;10.044;2022-08-19T08:41:01;21.60;99.90
354;DHT22;165;53.592;10.044;2022-08-19T08:43:39;21.60;99.90
354;DHT22;165;53.592;10.044;2022-08-19T08:46:14;21.70;99.90
354;DHT22;165;53.592;10.044;2022-08-19T08:51:51;21.80;99.90
354;DHT22;165;53.592;10.044;2022-08-19T08:54:15;21.90;99.90
354;DHT22;165;53.592;10.044;2022-08-19T08:56:43;21.90;99.90
354;DHT22;165;53.592;10.044;2022-08-19T08:59:30;22.00;99.90
354;DHT22;165;53.592;10.044;2022-08-19T09:01:58;21.90;99.90
354;DHT22;165;53.592;10.044;2022-08-19T09:04:24;21.90;99.90
354;DHT22;165;53.592;10.044;2022-08-19T09:09:40;21.90;99.90
354;DHT22;165;53.592;10.044;2022-08-19T09:12:24;21.90;99.90
354;DHT22;165;53.592;10.044;2022-08-19T09:14:58;22.00;99.90
354;DHT22;165;53.592;10.044;2022-08-19T09:17:27;22.10;99.90
354;DHT22;165;53.592;10.044;2022-08-19T09:20:25;22.10;99.90
354;DHT22;165;53.592;10.044;2022-08-19T09:22:50;22.10;99.90
354;DHT22;165;53.592;10.044;2022-08-19T09:25:21;21.90;99.90
354;DHT22;165;53.592;10.044;2022-08-19T09:27:48;21.80;99.90
354;DHT22;165;53.592;10.044;2022-08-19T09:30:24;21.80;99.90
354;DHT22;165;53.592;10.044;2022-08-19T09:32:50;21.70;99.90
354;DHT22;165;53.592;10.044;2022-08-19T09:35:19;21.70;99.90
354;DHT22;165;53.592;10.044;2022-08-19T09:37:47;21.70;99.90
354;DHT22;165;53.592;10.044;2022-08-19T09:40:13;21.80;99.90
354;DHT22;165;53.592;10.044;2022-08-19T09:42:39;21.80;99.90
354;DHT22;165;53.592;10.044;2022-08-19T09:45:05;21.80;99.90
354;DHT22;165;53.592;10.044;2022-08-19T09:47:31;21.90;99.90
354;DHT22;165;53.592;10.044;2022-08-19T09:49:57;21.80;99.90
354;DHT22;165;53.592;10.044;2022-08-19T09:52:23;21.90;99.90
354;DHT22;165;53.592;10.044;2022-08-19T09:54:52;21.80;99.90
354;DHT22;165;53.592;10.044;2022-08-19T09:57:18;21.80;99.90
354;DHT22;165;53.592;10.044;2022-08-19T09:59:43;21.80;99.90
354;DHT22;165;53.592;10.044;2022-08-19T10:02:10;21.90;99.90
354;DHT22;165;53.592;10.044;2022-08-19T10:04:36;21.80;99.90
354;DHT22;165;53.592;10.044;2022-08-19T10:07:20;21.80;99.90
354;DHT22;165;53.592;10.044;2022-08-19T10:09:47;21.90;99.90
354;DHT22;165;53.592;10.044;2022-08-19T10:12:12;22.10;99.90
354;DHT22;165;53.592;10.044;2022-08-19T10:14:40;22.30;99.90
354;DHT22;165;53.592;10.044;2022-08-19T10:17:06;22.30;99.90
354;DHT22;165;53.592;10.044;2022-08-19T10:19:32;22.30;99.90
354;DHT22;165;53.592;10.044;2022-08-19T10:22:03;22.20;99.90
354;DHT22;165;53.592;10.044;2022-08-19T10:24:29;22.30;99.90
354;DHT22;165;53.592;10.044;2022-08-19T10:26:56;22.50;99.90
354;DHT22;165;53.592;10.044;2022-08-19T10:29:22;22.80;99.90
354;DHT22;165;53.592;10.044;2022-08-19T10:31:47;22.80;99.90
354;DHT22;165;53.592;10.044;2022-08-19T10:34:13;22.90;99.90
354;DHT22;165;53.592;10.044;2022-08-19T10:36:39;23.00;99.90
354;DHT22;165;53.592;10.044;2022-08-19T10:39:09;23.10;99.90
354;DHT22;165;53.592;10.044;2022-08-19T10:41:38;23.20;99.90
354;DHT22;165;53.592;10.044;2022-08-19T10:44:09;23.20;99.90
354;DHT22;165;53.592;10.044;2022-08-19T10:46:38;23.10;99.90
354;DHT22;165;53.592;10.044;2022-08-19T10:49:06;22.90;99.90
354;DHT22;165;53.592;10.044;2022-08-19T10:51:32;22.90;99.90
354;DHT22;165;53.592;10.044;2022-08-19T10:54:17;23.00;99.90
354;DHT22;165;53.592;10.044;2022-08-19T10:56:43;23.00;99.90
354;DHT22;165;53.592;10.044;2022-08-19T10:59:20;23.00;99.90
354;DHT22;165;53.592;10.044;2022-08-19T11:01:47;23.10;99.90
354;DHT22;165;53.592;10.044;2022-08-19T11:04:13;22.80;99.90
354;DHT22;165;53.592;10.044;2022-08-19T11:06:41;22.80;99.90
354;DHT22;165;53.592;10.044;2022-08-19T11:09:08;22.80;99.90
354;DHT22;165;53.592;10.044;2022-08-19T11:11:36;22.80;99.90
354;DHT22;165;53.592;10.044;2022-08-19T11:14:09;22.80;99.90
354;DHT22;165;53.592;10.044;2022-08-19T11:16:36;22.80;99.90
354;DHT22;165;53.592;10.044;2022-08-19T11:19:02;22.70;99.90
354;DHT22;165;53.592;10.044;2022-08-19T11:21:40;22.70;99.90
354;DHT22;165;53.592;10.044;2022-08-19T11:24:10;22.90;99.90
354;DHT22;165;53.592;10.044;2022-08-19T11:26:37;23.00;99.90
354;DHT22;165;53.592;10.044;2022-08-19T11:29:05;23.00;99.90
354;DHT22;165;53.592;10.044;2022-08-19T11:31:33;23.20;99.90
354;DHT22;165;53.592;10.044;2022-08-19T11:34:03;23.30;99.90
354;DHT22;165;53.592;10.044;2022-08-19T11:36:30;23.40;99.90
354;DHT22;165;53.592;10.044;2022-08-19T11:38:57;23.60;99.90
354;DHT22;165;53.592;10.044;2022-08-19T11:41:24;24.20;99.90
354;DHT22;165;53.592;10.044;2022-08-19T11:43:50;24.70;99.90
354;DHT22;165;53.592;10.044;2022-08-19T11:46:17;24.70;99.90
354;DHT22;165;53.592;10.044;2022-08-19T11:48:43;24.90;99.90
354;DHT22;165;53.592;10.044;2022-08-19T11:51:14;24.80;99.90
354;DHT22;165;53.592;10.044;2022-08-19T11:53:41;24.70;99.90
354;DHT22;165;53.592;10.044;2022-08-19T11:56:08;24.40;99.90
354;DHT22;165;53.592;10.044;2022-08-19T11:58:34;24.20;99.90
354;DHT22;165;53.592;10.044;2022-08-19T12:01:00;24.40;99.90
354;DHT22;165;53.592;10.044;2022-08-19T12:03:26;24.30;99.90
354;DHT22;165;53.592;10.044;2022-08-19T12:05:52;24.10;99.90
354;DHT22;165;53.592;10.044;2022-08-19T12:08:18;24.30;99.90
354;DHT22;165;53.592;10.044;2022-08-19T12:10:44;24.30;99.90
354;DHT22;165;53.592;10.044;2022-08-19T12:13:13;24.30;99.90
354;DHT22;165;53.592;10.044;2022-08-19T12:15:40;24.30;99.90
354;DHT22;165;53.592;10.044;2022-08-19T12:18:09;24.30;99.90
354;DHT22;165;53.592;10.044;2022-08-19T12:20:39;24.50;99.90
354;DHT22;165;53.592;10.044;2022-08-19T12:23:09;24.70;99.90
354;DHT22;165;53.592;10.044;2022-08-19T12:25:43;24.90;99.90
354;DHT22;165;53.592;10.044;2022-08-19T12:28:16;25.00;99.90
354;DHT22;165;53.592;10.044;2022-08-19T12:30:42;25.00;99.90
354;DHT22;165;53.592;10.044;2022-08-19T12:33:08;25.20;99.90
354;DHT22;165;53.592;10.044;2022-08-19T12:35:34;25.60;99.90
354;DHT22;165;53.592;10.044;2022-08-19T12:37:59;26.30;99.90
354;DHT22;165;53.592;10.044;2022-08-19T12:40:26;26.70;99.90
354;DHT22;165;53.592;10.044;2022-08-19T12:42:53;26.90;99.90
354;DHT22;165;53.592;10.044;2022-08-19T12:45:18;27.20;99.90
354;DHT22;165;53.592;10.044;2022-08-19T12:47:44;27.20;99.90
354;DHT22;165;53.592;10.044;2022-08-19T12:50:11;27.20;99.90
354;DHT22;165;53.592;10.044;2022-08-19T12:52:37;27.10;99.90
354;DHT22;165;53.592;10.044;2022-08-19T12:55:05;27.10;99.90
354;DHT22;165;53.592;10.044;2022-08-19T12:57:31;27.30;99.90
354;DHT22;165;53.592;10.044;2022-08-19T13:00:10;27.40;99.90
354;DHT22;165;53.592;10.044;2022-08-19T13:02:38;27.30;99.90
354;DHT22;165;53.592;10.044;2022-08-19T13:05:05;27.30;99.90
354;DHT22;165;53.592;10.044;2022-08-19T13:07:32;27.50;99.90
354;DHT22;165;53.592;10.044;2022-08-19T13:09:57;27.30;99.90
354;DHT22;165;53.592;10.044;2022-08-19T13:12:23;27.30;99.90
354;DHT22;165;53.592;10.044;2022-08-19T13:14:52;27.20;99.90
354;DHT22;165;53.592;10.044;2022-08-19T13:17:18;26.90;99.90
354;DHT22;165;53.592;10.044;2022-08-19T13:19:43;26.50;99.90
354;DHT22;165;53.592;10.044;2022-08-19T13:22:09;26.30;99.90
354;DHT22;165;53.592;10.044;2022-08-19T13:24:37;26.20;99.90
354;DHT22;165;53.592;10.044;2022-08-19T13:27:04;26.10;99.90
354;DHT22;165;53.592;10.044;2022-08-19T13:29:30;26.10;99.90
354;DHT22;165;53.592;10.044;2022-08-19T13:32:14;25.90;99.90
354;DHT22;165;53.592;10.044;2022-08-19T13:34:58;26.00;99.90
354;DHT22;165;53.592;10.044;2022-08-19T13:37:23;26.10;99.90
354;DHT22;165;53.592;10.044;2022-08-19T13:42:39;26.40;99.90
354;DHT22;165;53.592;10.044;2022-08-19T13:45:06;26.60;99.90
354;DHT22;165;53.592;10.044;2022-08-19T13:47:33;26.60;99.90
354;DHT22;165;53.592;10.044;2022-08-19T13:50:08;26.50;99.90
354;DHT22;165;53.592;10.044;2022-08-19T13:52:34;26.60;99.90
354;DHT22;165;53.592;10.044;2022-08-19T13:55:00;26.70;99.90
354;DHT22;165;53.592;10.044;2022-08-19T13:57:25;26.60;99.90
354;DHT22;165;53.592;10.044;2022-08-19T13:59:51;26.60;99.90
354;DHT22;165;53.592;10.044;2022-08-19T14:02:17;26.50;99.90
354;DHT22;165;53.592;10.044;2022-08-19T14:04:42;26.20;99.90
354;DHT22;165;53.592;10.044;2022-08-19T14:07:08;26.00;99.90
354;DHT22;165;53.592;10.044;2022-08-19T14:09:34;25.80;99.90
354;DHT22;165;53.592;10.044;2022-08-19T14:12:00;25.70;99.90
354;DHT22;165;53.592;10.044;2022-08-19T14:14:25;25.60;99.90
354;DHT22;165;53.592;10.044;2022-08-19T14:16:51;25.30;99.90
354;DHT22;165;53.592;10.044;2022-08-19T14:19:17;25.30;99.90
354;DHT22;165;53.592;10.044;2022-08-19T14:21:42;25.20;99.90
354;DHT22;165;53.592;10.044;2022-08-19T14:24:08;25.10;99.90
354;DHT22;165;53.592;10.044;2022-08-19T14:26:34;25.10;99.90
354;DHT22;165;53.592;10.044;2022-08-19T14:29:00;25.00;99.90
354;DHT22;165;53.592;10.044;2022-08-19T14:31:26;24.70;99.90
354;DHT22;165;53.592;10.044;2022-08-19T14:33:52;24.70;99.90
354;DHT22;165;53.592;10.044;2022-08-19T14:36:18;24.60;99.90
354;DHT22;165;53.592;10.044;2022-08-19T14:38:45;24.50;99.90
354;DHT22;165;53.592;10.044;2022-08-19T14:41:21;24.50;99.90
354;DHT22;165;53.592;10.044;2022-08-19T14:43:49;24.50;99.90
354;DHT22;165;53.592;10.044;2022-08-19T14:46:18;24.50;99.90
354;DHT22;165;53.592;10.044;2022-08-19T14:48:46;24.60;99.90
354;DHT22;165;53.592;10.044;2022-08-19T14:51:12;24.80;99.90
354;DHT22;165;53.592;10.044;2022-08-19T14:53:40;24.80;99.90
354;DHT22;165;53.592;10.044;2022-08-19T14:56:15;24.90;99.90
354;DHT22;165;53.592;10.044;2022-08-19T14:58:42;24.90;99.90
354;DHT22;165;53.592;10.044;2022-08-19T15:01:09;25.00;99.90
354;DHT22;165;53.592;10.044;2022-08-19T15:03:36;24.90;99.90
354;DHT22;165;53.592;10.044;2022-08-19T15:06:04;25.00;99.90
354;DHT22;165;53.592;10.044;2022-08-19T15:08:31;25.00;99.90
354;DHT22;165;53.592;10.044;2022-08-19T15:10:57;25.00;99.90
354;DHT22;165;53.592;10.044;2022-08-19T15:13:24;25.00;99.90
354;DHT22;165;53.592;10.044;2022-08-19T15:15:50;25.20;99.90
354;DHT22;165;53.592;10.044;2022-08-19T15:18:17;25.20;99.90
354;DHT22;165;53.592;10.044;2022-08-19T15:20:43;25.30;99.90
354;DHT22;165;53.592;10.044;2022-08-19T15:23:09;25.40;99.90
354;DHT22;165;53.592;10.044;2022-08-19T15:25:36;25.40;99.90
354;DHT22;165;53.592;10.044;2022-08-19T15:28:03;25.50;99.90
354;DHT22;165;53.592;10.044;2022-08-19T15:30:29;25.40;99.90
354;DHT22;165;53.592;10.044;2022-08-19T15:32:56;25.50;99.90
354;DHT22;165;53.592;10.044;2022-08-19T15:35:23;25.70;99.90
354;DHT22;165;53.592;10.044;2022-08-19T15:37:50;25.50;99.90
354;DHT22;165;53.592;10.044;2022-08-19T15:40:17;25.50;99.90
354;DHT22;165;53.592;10.044;2022-08-19T15:42:43;25.60;99.90
354;DHT22;165;53.592;10.044;2022-08-19T15:45:10;25.70;99.90
354;DHT22;165;53.592;10.044;2022-08-19T15:47:37;25.60;99.90
354;DHT22;165;53.592;10.044;2022-08-19T15:50:13;25.50;99.90
354;DHT22;165;53.592;10.044;2022-08-19T15:53:09;25.60;99.90
354;DHT22;165;53.592;10.044;2022-08-19T15:55:42;25.80;99.90
354;DHT22;165;53.592;10.044;2022-08-19T15:58:11;25.80;99.90
354;DHT22;165;53.592;10.044;2022-08-19T16:01:01;25.70;99.90
354;DHT22;165;53.592;10.044;2022-08-19T16:03:47;25.70;99.90
354;DHT22;165;53.592;10.044;2022-08-19T16:06:32;25.70;99.90
354;DHT22;165;53.592;10.044;2022-08-19T16:09:00;25.70;99.90
354;DHT22;165;53.592;10.044;2022-08-19T16:11:29;25.50;99.90
354;DHT22;165;53.592;10.044;2022-08-19T16:13:56;25.30;99.90
354;DHT22;165;53.592;10.044;2022-08-19T16:16:25;25.20;99.90
354;DHT22;165;53.592;10.044;2022-08-19T16:18:56;25.00;99.90
354;DHT22;165;53.592;10.044;2022-08-19T16:21:23;24.80;99.90
354;DHT22;165;53.592;10.044;2022-08-19T16:23:50;24.80;99.90
354;DHT22;165;53.592;10.044;2022-08-19T16:26:17;24.70;99.90
354;DHT22;165;53.592;10.044;2022-08-19T16:28:44;24.60;99.90
354;DHT22;165;53.592;10.044;2022-08-19T16:31:11;24.40;99.90